Time;durP1;ratioP1;P1;durP2;ratioP2;P2;SDS_P1;SDS_P2;PMS_P1;PMS_P2;Temp;Humidity;BMP_temperature;BMP_pressure;BME280_temperature;BME280_humidity;BME280_pressure;Samples;Min_cycle;Max_cycle;Signal;HPM_P1;HPM_P2
2023/09/14 00:01:27;;;;;;;3.1;2.1;;;;;;;18.02;100;941.0133;;;;
2023/09/14 00:03:53;;;;;;;2.7;2.2;;;;;;;18.04;100;941.0132;;;;
2023/09/14 00:06:18;;;;;;;2.6;2;;;;;;;18.07;100;940.9274;;;;
2023/09/14 00:08:43;;;;;;;2.6;2.2;;;;;;;18.11;100;941.0018;;;;
2023/09/14 00:11:08;;;;;;;3;2.4;;;;;;;18.16;100;941.0349;;;;
2023/09/14 00:13:33;;;;;;;2.7;2.3;;;;;;;18.04;100;941.0407;;;;
2023/09/14 00:15:58;;;;;;;2.4;2.2;;;;;;;18.05;100;941.0542;;;;
2023/09/14 00:18:23;;;;;;;2.3;2.1;;;;;;;18.02;100;941.1127;;;;
2023/09/14 00:20:52;;;;;;;3.7;2;;;;;;;18.04;100;941.0778;;;;
2023/09/14 00:23:16;;;;;;;3.4;2.4;;;;;;;18;100;941.0474;;;;
2023/09/14 00:25:39;;;;;;;3.4;2.1;;;;;;;18.03;100;941.1013;;;;
2023/09/14 00:28:04;;;;;;;2.5;2.3;;;;;;;17.98;100;941.0589;;;;
2023/09/14 00:30:30;;;;;;;2.6;2.3;;;;;;;18;100;941.0417;;;;
2023/09/14 00:32:55;;;;;;;4.1;2.1;;;;;;;18.04;100;941.0616;;;;
2023/09/14 00:35:22;;;;;;;2.5;2.1;;;;;;;18;100;941.0659;;;;
2023/09/14 00:37:46;;;;;;;3.5;2.6;;;;;;;17.93;100;941.0275;;;;
2023/09/14 00:40:11;;;;;;;2.7;2.4;;;;;;;17.9;100;941.0569;;;;
2023/09/14 00:42:38;;;;;;;3.8;2.5;;;;;;;17.99;100;941.062;;;;
2023/09/14 00:45:02;;;;;;;3.1;2.2;;;;;;;17.94;100;941.0491;;;;
2023/09/14 00:47:27;;;;;;;2.8;1.9;;;;;;;17.84;100;941.0691;;;;
2023/09/14 00:49:52;;;;;;;2.8;1.9;;;;;;;17.89;100;941.1094;;;;
2023/09/14 00:52:17;;;;;;;3.3;2;;;;;;;17.93;100;941.1177;;;;
2023/09/14 00:54:44;;;;;;;1.8;1.7;;;;;;;17.83;100;941.0797;;;;
2023/09/14 00:57:09;;;;;;;1.8;1.7;;;;;;;17.78;100;941.1437;;;;
2023/09/14 00:59:34;;;;;;;2.1;1.7;;;;;;;17.78;100;941.0873;;;;
2023/09/14 01:02:00;;;;;;;1.8;1.7;;;;;;;17.69;100;941.0966;;;;
2023/09/14 01:04:29;;;;;;;1.7;1.6;;;;;;;17.75;100;941.0804;;;;
2023/09/14 01:06:51;;;;;;;2.3;2;;;;;;;17.79;100;941.0226;;;;
2023/09/14 01:09:15;;;;;;;2;1.7;;;;;;;17.71;100;941.0336;;;;
2023/09/14 01:11:40;;;;;;;2.8;1.7;;;;;;;17.68;100;941.0767;;;;
2023/09/14 01:14:08;;;;;;;1.9;1.6;;;;;;;17.68;100;941.0669;;;;
2023/09/14 01:16:30;;;;;;;2.7;1.8;;;;;;;17.68;100;941.0066;;;;
2023/09/14 01:18:56;;;;;;;2.4;1.9;;;;;;;17.73;100;941.0381;;;;
2023/09/14 01:21:24;;;;;;;2.8;1.8;;;;;;;17.67;100;941.0781;;;;
2023/09/14 01:23:47;;;;;;;2.2;1.9;;;;;;;17.61;100;941.0511;;;;
2023/09/14 01:26:11;;;;;;;1.5;1.4;;;;;;;17.67;100;941.1175;;;;
2023/09/14 01:28:36;;;;;;;1.6;1.5;;;;;;;17.68;100;941.0388;;;;
2023/09/14 01:31:02;;;;;;;1.8;1.7;;;;;;;17.66;100;941.0653;;;;
2023/09/14 01:33:27;;;;;;;2.3;1.6;;;;;;;17.7;100;941.0941;;;;
2023/09/14 01:35:53;;;;;;;1.8;1.6;;;;;;;17.69;100;941.1063;;;;
2023/09/14 01:38:18;;;;;;;1.4;1.3;;;;;;;17.55;100;941.1164;;;;
2023/09/14 01:40:43;;;;;;;1.1;1;;;;;;;17.53;100;941.0747;;;;
2023/09/14 01:43:08;;;;;;;1;0.9;;;;;;;17.57;100;941.1096;;;;
2023/09/14 01:45:34;;;;;;;1.3;1.2;;;;;;;17.64;100;941.0864;;;;
2023/09/14 01:47:59;;;;;;;2.7;1.5;;;;;;;17.5;100;941.0711;;;;
2023/09/14 01:50:25;;;;;;;1.6;1.5;;;;;;;17.61;100;941.1042;;;;
2023/09/14 01:52:52;;;;;;;1.4;1.3;;;;;;;17.66;100;941.0951;;;;
2023/09/14 01:55:17;;;;;;;2.2;1.6;;;;;;;17.59;100;941.0941;;;;
2023/09/14 01:57:41;;;;;;;1.6;1.5;;;;;;;17.58;100;941.0692;;;;
2023/09/14 02:00:06;;;;;;;2.1;1.8;;;;;;;17.47;100;941.0377;;;;
2023/09/14 02:02:31;;;;;;;2.3;2.1;;;;;;;17.36;100;940.9905;;;;
2023/09/14 02:04:56;;;;;;;2.2;1.9;;;;;;;17.17;100;941.0246;;;;
2023/09/14 02:07:22;;;;;;;2.7;2.1;;;;;;;17.19;100;941.0452;;;;
2023/09/14 02:09:47;;;;;;;3.3;2.5;;;;;;;17.27;100;941.0383;;;;
2023/09/14 02:12:13;;;;;;;2.3;2.1;;;;;;;17.28;100;941.1074;;;;
2023/09/14 02:14:38;;;;;;;2.8;2.1;;;;;;;17.4;100;941.1035;;;;
2023/09/14 02:17:03;;;;;;;2.3;2.1;;;;;;;17.46;100;941.1142;;;;
2023/09/14 02:19:28;;;;;;;2.6;2;;;;;;;17.53;100;941.1175;;;;
2023/09/14 02:21:53;;;;;;;2.3;2.1;;;;;;;17.51;100;941.158;;;;
2023/09/14 02:24:18;;;;;;;2.8;2.5;;;;;;;17.54;100;941.1036;;;;
2023/09/14 02:26:44;;;;;;;2.7;2.1;;;;;;;17.59;100;941.1489;;;;
2023/09/14 02:29:08;;;;;;;2.4;2.2;;;;;;;17.67;100;941.149;;;;
2023/09/14 02:31:34;;;;;;;2.9;2.2;;;;;;;17.64;100;941.1758;;;;
2023/09/14 02:33:59;;;;;;;3.6;2.3;;;;;;;17.62;100;941.127;;;;
2023/09/14 02:36:25;;;;;;;3.6;2.3;;;;;;;17.67;100;941.1271;;;;
2023/09/14 02:38:50;;;;;;;2.5;2.3;;;;;;;17.63;100;941.1897;;;;
2023/09/14 02:41:15;;;;;;;2.2;2;;;;;;;17.58;100;941.0878;;;;
2023/09/14 02:43:41;;;;;;;2.8;2.4;;;;;;;17.66;100;941.1756;;;;
2023/09/14 02:46:06;;;;;;;2.9;2;;;;;;;17.72;100;941.188;;;;
2023/09/14 02:48:31;;;;;;;2.2;2;;;;;;;17.78;100;941.1275;;;;
2023/09/14 02:50:56;;;;;;;2.6;2.1;;;;;;;17.82;100;941.1894;;;;
2023/09/14 02:53:24;;;;;;;2.9;2.2;;;;;;;17.78;100;941.142;;;;
2023/09/14 02:55:49;;;;;;;2.2;2;;;;;;;17.69;100;941.0563;;;;
2023/09/14 02:58:14;;;;;;;4.5;2.6;;;;;;;17.64;100;941.105;;;;
2023/09/14 03:00:39;;;;;;;3.3;2.6;;;;;;;17.58;100;941.1481;;;;
2023/09/14 03:03:07;;;;;;;3;2.6;;;;;;;17.55;100;941.1349;;;;
2023/09/14 03:05:32;;;;;;;3.6;2.7;;;;;;;17.61;100;941.1132;;;;
2023/09/14 03:07:59;;;;;;;3;2.7;;;;;;;17.56;100;941.0848;;;;
2023/09/14 03:10:24;;;;;;;2.4;2.2;;;;;;;17.52;100;941.0927;;;;
2023/09/14 03:12:49;;;;;;;3.4;2.4;;;;;;;17.47;100;941.098;;;;
2023/09/14 03:15:22;;;;;;;2.9;2.6;;;;;;;17.47;100;941.0772;;;;
2023/09/14 03:17:48;;;;;;;2.8;2.2;;;;;;;17.33;100;941.0737;;;;
2023/09/14 03:20:14;;;;;;;2.6;2.1;;;;;;;17.43;100;941.0687;;;;
2023/09/14 03:22:39;;;;;;;2.6;2.3;;;;;;;17.49;100;941.1243;;;;
2023/09/14 03:25:17;;;;;;;3.5;2.4;;;;;;;17.53;100;941.0924;;;;
2023/09/14 03:27:49;;;;;;;2.6;2.4;;;;;;;17.49;100;941.0366;;;;
2023/09/14 03:30:17;;;;;;;2.3;2.1;;;;;;;17.49;100;941.0712;;;;
2023/09/14 03:32:48;;;;;;;2.6;2.4;;;;;;;17.56;100;941.1372;;;;
2023/09/14 03:35:19;;;;;;;2.4;2.2;;;;;;;17.58;100;941.1288;;;;
2023/09/14 03:37:48;;;;;;;3;2.6;;;;;;;17.61;100;941.0648;;;;
2023/09/14 03:40:14;;;;;;;3.2;2.3;;;;;;;17.62;100;941.1205;;;;
2023/09/14 03:42:45;;;;;;;3.4;2.9;;;;;;;17.55;100;941.13;;;;
2023/09/14 03:45:17;;;;;;;2.5;2.3;;;;;;;17.55;100;941.18;;;;
2023/09/14 03:47:44;;;;;;;2.2;2;;;;;;;17.56;100;941.1677;;;;
2023/09/14 03:50:09;;;;;;;2.5;2.2;;;;;;;17.53;100;941.2197;;;;
2023/09/14 03:52:41;;;;;;;2.2;2;;;;;;;17.61;100;941.2122;;;;
2023/09/14 03:55:13;;;;;;;2.3;2.1;;;;;;;17.6;100;941.173;;;;
2023/09/14 03:57:47;;;;;;;3.2;1.9;;;;;;;17.6;100;941.1311;;;;
2023/09/14 04:00:15;;;;;;;2.2;2;;;;;;;17.52;100;941.1635;;;;
2023/09/14 04:02:48;;;;;;;3.2;2.2;;;;;;;17.53;100;941.2374;;;;
2023/09/14 04:05:20;;;;;;;2.8;2.1;;;;;;;17.45;100;941.2497;;;;
2023/09/14 04:07:45;;;;;;;2.9;2;;;;;;;17.44;100;941.2506;;;;
2023/09/14 04:10:12;;;;;;;2.4;2.1;;;;;;;17.43;100;941.258;;;;
2023/09/14 04:12:42;;;;;;;2.6;2.2;;;;;;;17.48;100;941.2195;;;;
2023/09/14 04:15:26;;;;;;;2.6;2.4;;;;;;;17.52;100;941.2528;;;;
2023/09/14 04:17:54;;;;;;;2.3;1.8;;;;;;;17.52;100;941.2761;;;;
2023/09/14 04:20:20;;;;;;;2;1.8;;;;;;;17.52;100;941.2625;;;;
2023/09/14 04:22:47;;;;;;;2.3;2.1;;;;;;;17.52;100;941.2704;;;;
2023/09/14 04:25:22;;;;;;;2.9;2;;;;;;;17.4;100;941.2411;;;;
2023/09/14 04:27:47;;;;;;;2.1;1.9;;;;;;;17.22;100;941.31;;;;
2023/09/14 04:30:24;;;;;;;2.3;2.1;;;;;;;17.28;100;941.3633;;;;
2023/09/14 04:32:53;;;;;;;2.5;2.1;;;;;;;17.33;100;941.3892;;;;
2023/09/14 04:35:20;;;;;;;2.4;2.2;;;;;;;17.17;100;941.3295;;;;
2023/09/14 04:37:45;;;;;;;2.1;1.9;;;;;;;17.15;100;941.4586;;;;
2023/09/14 04:40:18;;;;;;;3.5;2;;;;;;;17.14;100;941.4281;;;;
2023/09/14 04:42:47;;;;;;;3.8;2.8;;;;;;;17.14;100;941.4812;;;;
2023/09/14 04:45:13;;;;;;;2.4;2;;;;;;;17.22;100;941.5005;;;;
2023/09/14 04:47:37;;;;;;;2.4;2.2;;;;;;;17.27;100;941.5083;;;;
2023/09/14 04:50:06;;;;;;;3.3;2.4;;;;;;;17.32;100;941.5109;;;;
2023/09/14 04:52:36;;;;;;;2.5;2.3;;;;;;;17.36;100;941.4808;;;;
2023/09/14 04:55:06;;;;;;;2.6;2.4;;;;;;;17.36;100;941.4702;;;;
2023/09/14 04:57:30;;;;;;;2.9;2.4;;;;;;;17.39;100;941.5061;;;;
2023/09/14 04:59:57;;;;;;;3.3;2.3;;;;;;;17.45;100;941.4719;;;;
2023/09/14 05:02:22;;;;;;;2.9;2.6;;;;;;;17.48;100;941.5457;;;;
2023/09/14 05:04:54;;;;;;;2.8;2.5;;;;;;;17.55;100;941.5383;;;;
2023/09/14 05:07:19;;;;;;;2.6;2.3;;;;;;;17.57;100;941.4955;;;;
2023/09/14 05:09:49;;;;;;;2.8;2.5;;;;;;;17.61;100;941.5617;;;;
2023/09/14 05:12:17;;;;;;;3.1;2.8;;;;;;;17.68;100;941.5687;;;;
2023/09/14 05:14:42;;;;;;;3.5;2.6;;;;;;;17.62;100;941.5555;;;;
2023/09/14 05:17:07;;;;;;;3;2.7;;;;;;;17.59;100;941.5725;;;;
2023/09/14 05:19:39;;;;;;;3.4;2.9;;;;;;;17.62;100;941.6027;;;;
2023/09/14 05:22:05;;;;;;;3;2.7;;;;;;;17.63;100;941.6021;;;;
2023/09/14 05:24:30;;;;;;;3.8;3.4;;;;;;;17.48;100;941.618;;;;
2023/09/14 05:26:59;;;;;;;4.2;3.8;;;;;;;17.52;100;941.6627;;;;
2023/09/14 05:29:24;;;;;;;4.4;3.4;;;;;;;17.56;100;941.5728;;;;
2023/09/14 05:31:53;;;;;;;4.5;3.8;;;;;;;17.61;100;941.6922;;;;
2023/09/14 05:34:21;;;;;;;4.6;3;;;;;;;17.64;100;941.6914;;;;
2023/09/14 05:36:50;;;;;;;3.5;3.2;;;;;;;17.65;100;941.6155;;;;
2023/09/14 05:39:13;;;;;;;3.9;3;;;;;;;17.68;100;941.6597;;;;
2023/09/14 05:41:41;;;;;;;5.8;2.9;;;;;;;17.74;100;941.7186;;;;
2023/09/14 05:44:05;;;;;;;2.9;2.5;;;;;;;17.7;100;941.6425;;;;
2023/09/14 05:46:32;;;;;;;4.6;2.5;;;;;;;17.69;100;941.7369;;;;
2023/09/14 05:48:57;;;;;;;3.4;2.4;;;;;;;17.66;100;941.7635;;;;
2023/09/14 05:51:26;;;;;;;3;2.5;;;;;;;17.61;100;941.7486;;;;
2023/09/14 05:53:51;;;;;;;2.5;2.2;;;;;;;17.62;100;941.6994;;;;
2023/09/14 05:56:20;;;;;;;2.7;2.3;;;;;;;17.54;100;941.6633;;;;
2023/09/14 05:58:45;;;;;;;4.1;2.5;;;;;;;17.35;100;941.7134;;;;
2023/09/14 06:01:10;;;;;;;2.6;2.4;;;;;;;17.28;100;941.7327;;;;
2023/09/14 06:03:35;;;;;;;3.1;2.5;;;;;;;17.43;100;941.7128;;;;
2023/09/14 06:06:00;;;;;;;3.4;2.8;;;;;;;17.56;100;941.7813;;;;
2023/09/14 06:08:27;;;;;;;2.9;2.4;;;;;;;17.59;100;941.81;;;;
2023/09/14 06:10:52;;;;;;;2.8;2.6;;;;;;;17.62;100;941.8099;;;;
2023/09/14 06:13:21;;;;;;;2.8;2.5;;;;;;;17.69;100;941.7491;;;;
2023/09/14 06:15:46;;;;;;;3.7;3;;;;;;;17.77;100;941.8212;;;;
2023/09/14 06:18:16;;;;;;;3.1;2.7;;;;;;;17.91;100;941.8408;;;;
2023/09/14 06:20:41;;;;;;;3.6;3;;;;;;;17.91;100;941.8367;;;;
2023/09/14 06:23:08;;;;;;;3.3;2.8;;;;;;;17.93;100;941.8824;;;;
2023/09/14 06:25:33;;;;;;;4.3;3.9;;;;;;;18.05;100;941.9489;;;;
2023/09/14 06:28:00;;;;;;;3.6;2.7;;;;;;;17.98;100;941.8761;;;;
2023/09/14 06:30:25;;;;;;;3.1;2.7;;;;;;;18.09;100;941.8821;;;;
2023/09/14 06:32:55;;;;;;;2.7;2.5;;;;;;;18.21;100;941.8965;;;;
2023/09/14 06:35:28;;;;;;;3.8;2.7;;;;;;;18.2;100;941.771;;;;
2023/09/14 06:39:46;;;;;;;5.2;3.5;;;;;;;18.06;100;941.8875;;;;
2023/09/14 06:42:12;;;;;;;6.1;3.2;;;;;;;18.15;100;941.8669;;;;
2023/09/14 06:44:36;;;;;;;3.9;2.5;;;;;;;18.13;99.49707;941.8736;;;;
2023/09/14 06:47:03;;;;;;;2.5;2.3;;;;;;;17.91;100;941.861;;;;
2023/09/14 06:49:28;;;;;;;3.7;2.6;;;;;;;17.85;100;941.7625;;;;
2023/09/14 06:51:54;;;;;;;2.8;2.3;;;;;;;17.81;100;941.8683;;;;
2023/09/14 06:54:19;;;;;;;2.5;2.3;;;;;;;17.87;100;941.8889;;;;
2023/09/14 06:56:45;;;;;;;3.3;2.6;;;;;;;18.01;100;941.8951;;;;
2023/09/14 06:59:10;;;;;;;2.8;2.3;;;;;;;17.94;100;941.9016;;;;
2023/09/14 07:01:38;;;;;;;3.7;2.3;;;;;;;17.92;100;941.9034;;;;
2023/09/14 07:04:03;;;;;;;2.9;2.2;;;;;;;17.95;100;941.9264;;;;
2023/09/14 07:06:30;;;;;;;3.8;2.3;;;;;;;18.02;100;941.9531;;;;
2023/09/14 07:08:55;;;;;;;2.9;2.3;;;;;;;18.2;100;941.9459;;;;
2023/09/14 07:11:21;;;;;;;2.7;2.3;;;;;;;18.34;100;941.9677;;;;
2023/09/14 07:13:49;;;;;;;2.6;2.4;;;;;;;18.43;100;941.9536;;;;
2023/09/14 07:16:11;;;;;;;3.8;2.5;;;;;;;18.54;99.47461;941.9528;;;;
2023/09/14 07:18:36;;;;;;;3.9;2.5;;;;;;;18.64;98.21777;941.9817;;;;
2023/09/14 07:21:03;;;;;;;2.2;1.9;;;;;;;18.63;98.40234;941.9763;;;;
2023/09/14 07:23:27;;;;;;;2.8;2.2;;;;;;;18.65;98.68555;941.9928;;;;
2023/09/14 07:25:55;;;;;;;2.3;2.1;;;;;;;18.66;98.61719;942.0153;;;;
2023/09/14 07:28:20;;;;;;;2.8;2.1;;;;;;;18.7;98.42969;942.0081;;;;
2023/09/14 07:30:47;;;;;;;2.8;2.5;;;;;;;18.88;97.08496;942.0201;;;;
2023/09/14 07:33:13;;;;;;;3.2;2.2;;;;;;;19.12;96.24023;942.0325;;;;
2023/09/14 07:35:39;;;;;;;2.9;2;;;;;;;19.41;93.05469;942.0743;;;;
2023/09/14 07:38:04;;;;;;;2.2;2;;;;;;;19.68;92.26953;942.0854;;;;
2023/09/14 07:40:30;;;;;;;1.9;1.7;;;;;;;19.85;89.26172;942.0922;;;;
2023/09/14 07:42:55;;;;;;;2.2;1.9;;;;;;;20.02;87.82422;942.1016;;;;
2023/09/14 07:45:21;;;;;;;2;1.8;;;;;;;20.17;88.0752;942.085;;;;
2023/09/14 07:47:46;;;;;;;1.9;1.8;;;;;;;19.85;90.75293;942.1124;;;;
2023/09/14 07:50:12;;;;;;;2.7;2.5;;;;;;;19.95;91.1582;942.1516;;;;
2023/09/14 07:52:41;;;;;;;3;2.7;;;;;;;20.06;87.37793;942.1383;;;;
2023/09/14 07:55:04;;;;;;;6;2.8;;;;;;;19.95;89.53809;942.1781;;;;
2023/09/14 07:57:31;;;;;;;4;3;;;;;;;20.31;85.20801;942.2076;;;;
2023/09/14 07:59:56;;;;;;;3.1;2.8;;;;;;;20.13;88.78125;942.2177;;;;
2023/09/14 08:02:23;;;;;;;3.5;2.9;;;;;;;20.3;87.2041;942.236;;;;
2023/09/14 08:04:48;;;;;;;3;2.6;;;;;;;20.42;84.99512;942.2646;;;;
2023/09/14 08:07:15;;;;;;;4.8;3.3;;;;;;;20.31;85.16309;942.265;;;;
2023/09/14 08:09:40;;;;;;;3.3;3;;;;;;;20.12;85.87305;942.2477;;;;
2023/09/14 08:12:08;;;;;;;3.2;2.8;;;;;;;19.93;84.68164;942.2595;;;;
2023/09/14 08:14:33;;;;;;;5.1;3.3;;;;;;;20.11;85.97656;942.2302;;;;
2023/09/14 08:16:58;;;;;;;4;3.5;;;;;;;;;;;;;
2023/09/14 08:19:24;;;;;;;4.2;3.8;;;;;;;;;;;;;
2023/09/14 08:21:49;;;;;;;4.3;3.3;;;;;;;;;;;;;
2023/09/14 08:24:14;;;;;;;5;3.7;;;;;;;;;;;;;
2023/09/14 08:26:39;;;;;;;5.1;4;;;;;;;;;;;;;
2023/09/14 08:29:04;;;;;;;5.1;4.1;;;;;;;;;;;;;
2023/09/14 08:31:29;;;;;;;4.4;3.9;;;;;;;;;;;;;
2023/09/14 08:33:55;;;;;;;4;3.4;;;;;;;;;;;;;
2023/09/14 08:36:20;;;;;;;4.8;3.6;;;;;;;;;;;;;
2023/09/14 08:38:49;;;;;;;4.2;3.3;;;;;;;;;;;;;
2023/09/14 08:41:15;;;;;;;5.6;4.3;;;;;;;;;;;;;
2023/09/14 08:43:41;;;;;;;4.1;3.7;;;;;;;;;;;;;
2023/09/14 08:46:06;;;;;;;4.3;3.9;;;;;;;;;;;;;
2023/09/14 08:48:31;;;;;;;3.7;3.3;;;;;;;;;;;;;
2023/09/14 08:50:56;;;;;;;4.8;4.1;;;;;;;;;;;;;
2023/09/14 08:53:21;;;;;;;4.3;3.7;;;;;;;;;;;;;
2023/09/14 08:55:47;;;;;;;5;3.7;;;;;;;;;;;;;
2023/09/14 08:58:12;;;;;;;4.9;4.1;;;;;;;;;;;;;
2023/09/14 09:00:37;;;;;;;4;3.5;;;;;;;;;;;;;
2023/09/14 09:03:02;;;;;;;4.9;3.5;;;;;;;;;;;;;
2023/09/14 09:05:27;;;;;;;5.5;3.9;;;;;;;;;;;;;
2023/09/14 09:07:52;;;;;;;5.3;4;;;;;;;;;;;;;
2023/09/14 09:10:21;;;;;;;5.4;4.1;;;;;;;;;;;;;
2023/09/14 09:12:49;;;;;;;5.7;4.1;;;;;;;;;;;;;
2023/09/14 09:15:12;;;;;;;5.9;4.3;;;;;;;;;;;;;
2023/09/14 09:17:37;;;;;;;6;4.5;;;;;;;;;;;;;
2023/09/14 09:20:03;;;;;;;6.6;4.4;;;;;;;;;;;;;
2023/09/14 09:22:27;;;;;;;6.3;4.3;;;;;;;;;;;;;
2023/09/14 09:24:53;;;;;;;4.8;4.1;;;;;;;;;;;;;
2023/09/14 09:27:19;;;;;;;5.4;4.5;;;;;;;;;;;;;
2023/09/14 09:29:43;;;;;;;7.4;4.9;;;;;;;;;;;;;
2023/09/14 09:32:09;;;;;;;6.7;5.1;;;;;;;;;;;;;
2023/09/14 09:34:35;;;;;;;6.6;5;;;;;;;;;;;;;
2023/09/14 09:37:00;;;;;;;7.2;5.1;;;;;;;;;;;;;
2023/09/14 09:39:24;;;;;;;7.2;5.3;;;;;;;;;;;;;
2023/09/14 09:41:50;;;;;;;7.7;5.3;;;;;;;;;;;;;
2023/09/14 09:44:15;;;;;;;7.1;5.4;;;;;;;;;;;;;
2023/09/14 09:46:42;;;;;;;6.5;5.5;;;;;;;;;;;;;
2023/09/14 09:49:07;;;;;;;15.2;8.7;;;;;;;;;;;;;
2023/09/14 09:51:32;;;;;;;15.1;9.2;;;;;;;;;;;;;
2023/09/14 09:53:57;;;;;;;6.8;5.5;;;;;;;;;;;;;
2023/09/14 09:56:23;;;;;;;7.2;5.9;;;;;;;;;;;;;
2023/09/14 09:58:49;;;;;;;6.6;5.4;;;;;;;;;;;;;
2023/09/14 10:01:14;;;;;;;7.3;5.9;;;;;;;;;;;;;
2023/09/14 10:03:39;;;;;;;6.9;5.5;;;;;;;;;;;;;
2023/09/14 10:06:04;;;;;;;9.4;6;;;;;;;;;;;;;
2023/09/14 10:08:29;;;;;;;6.2;5.2;;;;;;;;;;;;;
2023/09/14 10:10:54;;;;;;;6.6;5.3;;;;;;;;;;;;;
2023/09/14 10:13:19;;;;;;;5.5;4.2;;;;;;;;;;;;;
2023/09/14 10:15:45;;;;;;;5.4;4.4;;;;;;;;;;;;;
2023/09/14 10:18:11;;;;;;;5.5;4.1;;;;;;;;;;;;;
2023/09/14 10:20:36;;;;;;;5.6;4.3;;;;;;;;;;;;;
2023/09/14 10:23:01;;;;;;;5.4;4.3;;;;;;;;;;;;;
2023/09/14 10:25:28;;;;;;;5.7;4;;;;;;;;;;;;;
2023/09/14 10:27:53;;;;;;;5.8;4.4;;;;;;;;;;;;;
2023/09/14 10:30:18;;;;;;;5.9;4;;;;;;;;;;;;;
2023/09/14 10:32:43;;;;;;;4.7;3.9;;;;;;;;;;;;;
2023/09/14 10:35:08;;;;;;;4.2;3.4;;;;;;;;;;;;;
2023/09/14 10:37:33;;;;;;;4.6;3.5;;;;;;;;;;;;;
2023/09/14 10:39:58;;;;;;;4.3;3.8;;;;;;;;;;;;;
2023/09/14 10:42:23;;;;;;;4.9;3.9;;;;;;;;;;;;;
2023/09/14 10:44:48;;;;;;;4.2;3.8;;;;;;;;;;;;;
2023/09/14 10:47:14;;;;;;;5;3.8;;;;;;;;;;;;;
2023/09/14 10:49:41;;;;;;;4.2;3.7;;;;;;;;;;;;;
2023/09/14 10:52:05;;;;;;;5.9;3.9;;;;;;;;;;;;;
2023/09/14 10:54:29;;;;;;;6.2;4.5;;;;;;;;;;;;;
2023/09/14 10:56:55;;;;;;;6.7;3.7;;;;;;;;;;;;;
2023/09/14 10:59:20;;;;;;;4.6;3.7;;;;;;;;;;;;;
2023/09/14 11:01:47;;;;;;;4.7;4.1;;;;;;;;;;;;;
2023/09/14 11:04:13;;;;;;;5.2;4.4;;;;;;;;;;;;;
2023/09/14 11:06:38;;;;;;;4.9;4;;;;;;;;;;;;;
2023/09/14 11:09:05;;;;;;;5.2;4.3;;;;;;;;;;;;;
2023/09/14 11:11:28;;;;;;;5.3;4.5;;;;;;;;;;;;;
2023/09/14 11:13:53;;;;;;;6.4;4.2;;;;;;;;;;;;;
2023/09/14 11:16:24;;;;;;;6.4;4.4;;;;;;;;;;;;;
2023/09/14 11:18:44;;;;;;;5.5;4.2;;;;;;;;;;;;;
2023/09/14 11:21:09;;;;;;;4.5;4.1;;;;;;;;;;;;;
2023/09/14 11:23:35;;;;;;;7;4.2;;;;;;;;;;;;;
2023/09/14 11:25:59;;;;;;;3.7;3.3;;;;;;;;;;;;;
2023/09/14 11:28:26;;;;;;;6.2;4.2;;;;;;;;;;;;;
2023/09/14 11:30:51;;;;;;;6.9;4.5;;;;;;;;;;;;;
2023/09/14 11:33:16;;;;;;;5.7;4.1;;;;;;;;;;;;;
2023/09/14 11:35:41;;;;;;;5.2;4.4;;;;;;;;;;;;;
2023/09/14 11:38:09;;;;;;;4.8;4.1;;;;;;;;;;;;;
2023/09/14 11:40:31;;;;;;;5.2;3.6;;;;;;;;;;;;;
2023/09/14 11:42:56;;;;;;;4.6;3.5;;;;;;;;;;;;;
2023/09/14 11:45:21;;;;;;;6.3;3.4;;;;;;;;;;;;;
2023/09/14 11:47:47;;;;;;;5.8;4.2;;;;;;;;;;;;;
2023/09/14 11:50:11;;;;;;;4.8;4.1;;;;;;;;;;;;;
2023/09/14 11:52:38;;;;;;;5.2;4.7;;;;;;;;;;;;;
2023/09/14 11:55:04;;;;;;;4.4;3.9;;;;;;;;;;;;;
2023/09/14 11:57:29;;;;;;;5.1;4.4;;;;;;;;;;;;;
2023/09/14 11:59:54;;;;;;;4.5;4;;;;;;;;;;;;;
2023/09/14 12:02:20;;;;;;;5.5;3.6;;;;;;;;;;;;;
2023/09/14 12:04:46;;;;;;;5.6;4.3;;;;;;;;;;;;;
2023/09/14 12:07:12;;;;;;;5.7;4.7;;;;;;;;;;;;;
2023/09/14 12:09:36;;;;;;;5.4;4.3;;;;;;;;;;;;;
2023/09/14 12:12:03;;;;;;;5.6;5;;;;;;;;;;;;;
2023/09/14 12:14:27;;;;;;;5.3;4.5;;;;;;;;;;;;;
2023/09/14 12:16:53;;;;;;;6.2;5.1;;;;;;;;;;;;;
2023/09/14 12:19:18;;;;;;;6.1;5.4;;;;;;;;;;;;;
2023/09/14 12:21:43;;;;;;;5.5;4.8;;;;;;;;;;;;;
2023/09/14 12:24:08;;;;;;;6.2;5.1;;;;;;;;;;;;;
2023/09/14 12:26:33;;;;;;;6;5.2;;;;;;;;;;;;;
2023/09/14 12:28:58;;;;;;;5.4;4.7;;;;;;;;;;;;;
2023/09/14 12:31:23;;;;;;;5.5;4.3;;;;;;;;;;;;;
2023/09/14 12:33:49;;;;;;;4.5;4.1;;;;;;;;;;;;;
2023/09/14 12:36:14;;;;;;;4.5;3.8;;;;;;;;;;;;;
2023/09/14 12:38:39;;;;;;;5.8;4.3;;;;;;;;;;;;;
2023/09/14 12:41:05;;;;;;;5.5;4.9;;;;;;;;;;;;;
2023/09/14 12:43:29;;;;;;;6.6;5.1;;;;;;;;;;;;;
2023/09/14 12:45:55;;;;;;;5.8;4.9;;;;;;;;;;;;;
2023/09/14 12:48:21;;;;;;;6.5;4.5;;;;;;;;;;;;;
2023/09/14 12:50:47;;;;;;;5.8;4.8;;;;;;;;;;;;;
2023/09/14 12:53:13;;;;;;;8;4.7;;;;;;;;;;;;;
2023/09/14 12:55:41;;;;;;;5.3;4.3;;;;;;;;;;;;;
2023/09/14 12:58:54;;;;;;;4.7;4.2;;;;;;;31.78;43.53027;940.5513;;;;
2023/09/14 13:01:20;;;;;;;6;4.4;;;;;;;32.99;41.49609;940.5525;;;;
2023/09/14 13:03:45;;;;;;;5.6;4.3;;;;;;;33.36;41;940.5181;;;;
2023/09/14 13:06:10;;;;;;;4.9;4.1;;;;;;;33.38;41.41113;940.504;;;;
2023/09/14 13:08:35;;;;;;;6.3;4.4;;;;;;;33.04;42.6543;940.532;;;;
2023/09/14 13:11:01;;;;;;;4.7;4.1;;;;;;;33.34;39.68848;940.519;;;;
2023/09/14 13:13:26;;;;;;;4.1;3.5;;;;;;;34.78;37.31836;940.4995;;;;
2023/09/14 13:15:53;;;;;;;4.7;3.6;;;;;;;34.8;37.62109;940.4144;;;;
2023/09/14 13:18:18;;;;;;;4.4;4;;;;;;;33.28;40.00781;940.4147;;;;
2023/09/14 13:20:42;;;;;;;6.2;3.4;;;;;;;34.09;38.41797;940.3711;;;;
2023/09/14 13:23:07;;;;;;;5.7;4.6;;;;;;;29.97;46.24316;940.302;;;;
2023/09/14 13:25:32;;;;;;;6.3;4.5;;;;;;;27.9;52.12402;940.3348;;;;
2023/09/14 13:27:58;;;;;;;6.6;4.2;;;;;;;28.17;51.58594;940.3698;;;;
2023/09/14 13:30:23;;;;;;;6.2;3.6;;;;;;;28.17;51.0498;940.3472;;;;
2023/09/14 13:32:49;;;;;;;5;4;;;;;;;27.49;51.96973;940.2816;;;;
2023/09/14 13:35:14;;;;;;;6.3;4.1;;;;;;;27.23;52.15332;940.2693;;;;
2023/09/14 13:37:40;;;;;;;4.8;4.3;;;;;;;26.62;54.02344;940.2273;;;;
2023/09/14 13:40:14;;;;;;;4.5;4;;;;;;;27.24;53.60059;940.2388;;;;
2023/09/14 13:42:33;;;;;;;4.4;4;;;;;;;29.19;48.06934;940.2156;;;;
2023/09/14 13:44:58;;;;;;;4.4;4;;;;;;;29.69;47.2041;940.2281;;;;
2023/09/14 13:47:24;;;;;;;5;4.2;;;;;;;31.13;45.72852;940.2247;;;;
2023/09/14 13:49:50;;;;;;;5.6;3.9;;;;;;;31.58;43.06738;940.2179;;;;
2023/09/14 13:52:15;;;;;;;6.9;4.8;;;;;;;28.83;48.17285;940.1716;;;;
2023/09/14 13:54:40;;;;;;;5.3;4;;;;;;;29.76;48.01074;940.1501;;;;
2023/09/14 13:57:08;;;;;;;6.6;4.9;;;;;;;29.1;48;940.0889;;;;
2023/09/14 13:59:33;;;;;;;6.9;5.8;;;;;;;28.28;50.50391;940.1197;;;;
2023/09/14 14:01:58;;;;;;;5.9;4.8;;;;;;;27.37;53.43848;940.0848;;;;
2023/09/14 14:04:23;;;;;;;6.8;6.1;;;;;;;26.64;55.75586;940.058;;;;
2023/09/14 14:06:49;;;;;;;6;5.2;;;;;;;25.36;58.69043;940.0924;;;;
2023/09/14 14:09:17;;;;;;;5.9;5.1;;;;;;;25.17;59.51563;940.0999;;;;
2023/09/14 14:11:39;;;;;;;7.3;5.7;;;;;;;24.76;61.70215;940.067;;;;
2023/09/14 14:14:05;;;;;;;6.8;5.3;;;;;;;23.88;67.42969;940.0952;;;;
2023/09/14 14:16:30;;;;;;;6;4.9;;;;;;;24.32;62.74707;940.1046;;;;
2023/09/14 14:18:55;;;;;;;5;4.5;;;;;;;24.59;62.24414;940.1236;;;;
2023/09/14 14:21:21;;;;;;;5.7;4.8;;;;;;;24.48;61.79297;940.1451;;;;
2023/09/14 14:23:46;;;;;;;5.4;4.7;;;;;;;24.45;62.79004;940.0781;;;;
2023/09/14 14:26:11;;;;;;;5.8;4.6;;;;;;;24.88;61.19922;940.0125;;;;
2023/09/14 14:28:38;;;;;;;5.2;4.7;;;;;;;24.91;61.3916;940.0723;;;;
2023/09/14 14:31:03;;;;;;;5.5;4.9;;;;;;;24.78;60.33594;940.0639;;;;
2023/09/14 14:33:30;;;;;;;5.8;4.9;;;;;;;24.85;61.10059;940.0335;;;;
2023/09/14 14:35:54;;;;;;;5.2;4.7;;;;;;;24.73;61.4502;940.0049;;;;
2023/09/14 14:38:21;;;;;;;7.3;4.9;;;;;;;24.66;63.98633;940.0184;;;;
2023/09/14 14:40:46;;;;;;;5.6;4.8;;;;;;;24.1;64.89648;940.0541;;;;
2023/09/14 14:43:13;;;;;;;7.8;5.6;;;;;;;24.03;67.25293;939.9925;;;;
2023/09/14 14:45:37;;;;;;;5.9;5.3;;;;;;;24.08;66.53125;940.0442;;;;
2023/09/14 14:48:03;;;;;;;7;6;;;;;;;23.6;68.19922;940.077;;;;
2023/09/14 14:50:28;;;;;;;8.3;6.6;;;;;;;23.12;72.09766;940.1075;;;;
2023/09/14 14:52:54;;;;;;;7.7;6.9;;;;;;;23.59;69.97363;940.0772;;;;
2023/09/14 14:55:19;;;;;;;9.1;7.2;;;;;;;23.86;68.28613;940.1064;;;;
2023/09/14 14:57:46;;;;;;;7.8;6.9;;;;;;;24.09;68.19141;940.1442;;;;
2023/09/14 15:00:11;;;;;;;9.5;7.7;;;;;;;23.89;66.98438;940.0996;;;;
2023/09/14 15:02:40;;;;;;;9.8;7.8;;;;;;;24.06;66.04395;940.0891;;;;
2023/09/14 15:05:05;;;;;;;11.3;9.2;;;;;;;23.65;67.58398;940.076;;;;
2023/09/14 15:07:31;;;;;;;12.2;9.2;;;;;;;23.42;68.75977;940.1699;;;;
2023/09/14 15:09:55;;;;;;;10.9;9.3;;;;;;;23.26;69.2998;940.123;;;;
2023/09/14 15:12:20;;;;;;;11.4;9;;;;;;;23.22;69.17578;940.1566;;;;
2023/09/14 15:14:46;;;;;;;9.4;8.4;;;;;;;23.07;69.15137;940.1361;;;;
2023/09/14 15:17:11;;;;;;;11.5;8.8;;;;;;;22.92;69.89258;940.1614;;;;
2023/09/14 15:19:36;;;;;;;10.6;8.5;;;;;;;22.77;70.1748;940.1708;;;;
2023/09/14 15:22:01;;;;;;;11.4;8.8;;;;;;;22.45;72.83398;940.2124;;;;
2023/09/14 15:24:26;;;;;;;13.7;9.4;;;;;;;22.19;73.7168;940.145;;;;
2023/09/14 15:26:52;;;;;;;10.7;8.9;;;;;;;22.15;74.0498;940.1778;;;;
2023/09/14 15:29:17;;;;;;;12.5;9.3;;;;;;;21.98;74.30273;940.1753;;;;
2023/09/14 15:31:42;;;;;;;11.7;9.6;;;;;;;21.96;74.95605;940.2045;;;;
2023/09/14 15:34:07;;;;;;;11.7;9.7;;;;;;;21.41;76.6084;940.1867;;;;
2023/09/14 15:36:37;;;;;;;13.1;9.7;;;;;;;21.73;75.80762;940.2233;;;;
2023/09/14 15:39:03;;;;;;;12.7;10.1;;;;;;;21.71;77.02246;940.274;;;;
2023/09/14 15:41:28;;;;;;;11.3;9.2;;;;;;;21.54;76.68848;940.2806;;;;
2023/09/14 15:43:53;;;;;;;12.3;9.7;;;;;;;21.67;76.44141;940.3289;;;;
2023/09/14 15:46:19;;;;;;;11.2;9.7;;;;;;;21.52;77.03516;940.283;;;;
2023/09/14 15:48:44;;;;;;;12.2;9.3;;;;;;;21.62;77.3584;940.2522;;;;
2023/09/14 15:51:09;;;;;;;12.2;9;;;;;;;21.78;76.90625;940.3084;;;;
2023/09/14 15:53:36;;;;;;;13;9.9;;;;;;;21.86;76.08691;940.2286;;;;
2023/09/14 15:56:00;;;;;;;14.3;10.3;;;;;;;21.93;75.65625;940.2725;;;;
2023/09/14 15:58:25;;;;;;;11.4;9.3;;;;;;;21.9;75.625;940.2347;;;;
2023/09/14 16:00:51;;;;;;;11.7;9.7;;;;;;;22.01;74.91797;940.3035;;;;
2023/09/14 16:03:16;;;;;;;11.1;8.8;;;;;;;21.95;75.52832;940.2129;;;;
2023/09/14 16:05:42;;;;;;;11;9;;;;;;;22.01;74.48535;940.2991;;;;
2023/09/14 16:08:08;;;;;;;10.9;9.1;;;;;;;21.81;74.62695;940.2784;;;;
2023/09/14 16:10:33;;;;;;;11.5;9.4;;;;;;;21.86;74.94043;940.303;;;;
2023/09/14 16:12:58;;;;;;;9.3;8.2;;;;;;;21.82;74.96777;940.2946;;;;
2023/09/14 16:15:23;;;;;;;12.3;9.6;;;;;;;21.78;75.22949;940.2219;;;;
2023/09/14 16:17:48;;;;;;;11.9;9.4;;;;;;;21.77;75.09961;940.3453;;;;